Velkommen til

Stord Flyklubb

Om oss

Historien til Stord Flyklubb

Klubbens aner strekker seg tilbake til 1969 med sjøfly. Siden har vi sett vanlige motorfly og glidefly, men det er sportsfly som er hovedfokuset i dag

"Me har gjort det som menneskja har drøymd om frå gamalt av, det dei misunner fuglane, det vil seia, me har floge"

Salman Rushdie

Bli pilot

Alle kan lære å fly!

Ta en prøvetur hos oss og se hvor moro det er! Prøveturen gir deg en mulighet til å se om dette er noe du har lyst til å gå videre med.

Teorien tas av de fleste som hjemmeundervisning. Nytt læremateriell gjør opplæringen både enklere og mer strømlinjeformet.

Praksis kan påbegynnes mens man tar teorien, men teorien må være bestått før man kan fly solo. 

METAR Haugesund
ENHD 240250Z AUTO 01011KT 9999 RA BKN029/// BKN040/// OVC051/// 11/09 Q0988 ENHD 240220Z AUTO 01012KT 9999 OVC032/// 11/09 Q0988 ENHD 240150Z AUTO 36011KT 9999 BKN030/// BKN070/// OVC120/// 11/09 Q0989 ENHD 240120Z AUTO 01008KT 9999 OVC031/// 11/08 Q0989 ENHD 240050Z AUTO 02008KT 9999 OVC035/// 10/09 Q0990 ENHD 240020Z AUTO 03008KT 9999 OVC041/// 10/09 Q0990 TAF ENHD 240200Z 2403/2412 36012KT 9999 -RA SCT012 BKN025 BECMG 2407/2409 16018KT TEMPO 2407/2412 4000 SHRA BKN010 BKN014CB PROB30 TEMPO 2407/2411 TS BECMG 2411/2412 21025G35KT
METAR Flesland
ENBR 240220Z 35010KT 9999 FEW030 BKN060 09/07 Q0989 RMK WIND 1200FT 36014KT ENBR 240120Z 32007KT 9999 FEW025 BKN075 09/07 Q0991 RMK WIND 1200FT 34010KT ENBR 240050Z 33007KT 9999 FEW020 SCT035 BKN060 08/07 Q0991 RMK WIND 1200FT 35009KT ENBR 240020Z 01005KT 9999 FEW020 SCT035 BKN065 08/07 Q0992 RERA RMK WIND 1200FT 06006KT ENBR 2400/2424 02006KT 9999 -RA FEW020 BKN050 TEMPO 2406/2410 RA BECMG 2408/2411 15012KT BECMG 2412/2415 17025KT PROB30 TEMPO 2410/2415 TS BKN020CB TEMPO 2415/2420 20032G45KT 4000 SHRA SCT008 BKN012CB